Time,TemperatureF,DewpointF,PressureIn,WindDirection,WindDirectionDegrees,WindSpeedMPH,WindSpeedGustMPH,Humidity,HourlyPrecipIn,Conditions,Clouds,dailyrainin,SoftwareType,DateUTC
2013-09-01 00:03:00,-999.0,-99.9,29.87,ESE,103,0.0,0.0,-999,-99.99,,,-99.99,,2013-09-01 04:03:00,
2013-09-01 00:14:00,65.0,65.0,29.87,ESE,103,0.0,0.0,100,0.03,,,-99.99,,2013-09-01 04:14:00,
2013-09-01 00:25:00,64.0,64.0,29.87,ESE,103,0.0,0.0,100,0.03,,,-99.99,,2013-09-01 04:25:00,
2013-09-01 00:43:00,64.0,64.0,29.87,ESE,103,0.0,0.0,100,0.03,,,-99.99,,2013-09-01 04:43:00,
2013-09-01 00:54:00,64.0,64.0,29.86,ESE,103,0.0,0.0,100,0.03,,,-99.99,,2013-09-01 04:54:00,
2013-09-01 01:13:00,64.0,64.0,29.86,ESE,103,0.0,0.0,100,0.03,,,-99.99,,2013-09-01 05:13:00,
2013-09-01 01:23:00,64.0,64.0,29.86,ESE,103,0.0,0.0,100,0.03,,,-99.99,,2013-09-01 05:23:00,
2013-09-01 01:43:00,64.0,64.0,29.86,ESE,103,0.0,0.0,100,0.03,,,-99.99,,2013-09-01 05:43:00,
2013-09-01 01:52:00,64.0,64.0,29.85,ESE,103,0.0,0.0,100,0.03,,,-99.99,,2013-09-01 05:52:00,
2013-09-01 02:13:00,63.0,63.0,29.85,ESE,103,0.0,0.0,100,0.03,,,-99.99,,2013-09-01 06:13:00,
2013-09-01 02:22:00,63.0,63.0,29.85,NNE,28,0.0,0.0,100,0.03,,,-99.99,,2013-09-01 06:22:00,
2013-09-01 02:42:00,63.0,63.0,29.84,NNE,28,0.0,0.0,100,0.03,,,-99.99,,2013-09-01 06:42:00,
2013-09-01 02:52:00,63.0,63.0,29.83,NNE,28,0.0,0.0,100,0.03,,,-99.99,,2013-09-01 06:52:00,
2013-09-01 03:13:00,63.0,63.0,29.83,NNE,28,0.0,0.0,100,0.03,,,-99.99,,2013-09-01 07:13:00,
2013-09-01 03:22:00,62.0,62.0,29.83,NNE,28,0.0,0.0,100,0.03,,,-99.99,,2013-09-01 07:22:00,
2013-09-01 03:42:00,63.0,63.0,29.83,NNE,28,0.0,0.0,100,0.03,,,-99.99,,2013-09-01 07:42:00,
2013-09-01 03:52:00,62.0,62.0,29.83,NNE,28,0.0,0.0,100,0.03,,,-99.99,,2013-09-01 07:52:00,
2013-09-01 04:11:00,62.0,62.0,29.83,NNE,28,0.0,0.0,100,0.03,,,-99.99,,2013-09-01 08:11:00,
2013-09-01 04:22:00,62.0,62.0,29.83,NNE,28,0.0,0.0,100,0.03,,,-99.99,,2013-09-01 08:22:00,
2013-09-01 04:43:00,62.0,62.0,29.83,NNE,24,0.0,0.0,100,0.03,,,-99.99,,2013-09-01 08:43:00,
2013-09-01 04:52:00,62.0,62.0,29.82,NNE,24,0.0,0.0,100,0.03,,,-99.99,,2013-09-01 08:52:00,
2013-09-01 05:02:00,62.0,62.0,29.82,NNE,24,0.0,0.0,100,0.03,,,-99.99,,2013-09-01 09:02:00,
2013-09-01 05:11:00,62.0,62.0,29.82,NNE,24,0.0,0.0,100,0.03,,,-99.99,,2013-09-01 09:11:00,
2013-09-01 05:22:00,62.0,62.0,29.81,NNE,24,0.0,0.0,100,0.03,,,-99.99,,2013-09-01 09:22:00,
2013-09-01 05:43:00,62.0,62.0,29.81,NNE,24,0.0,0.0,100,0.03,,,-99.99,,2013-09-01 09:43:00,
2013-09-01 05:53:00,62.0,62.0,29.82,NNE,24,0.0,0.0,100,0.03,,,-99.99,,2013-09-01 09:53:00,
2013-09-01 06:13:00,61.0,61.0,29.82,NNE,24,0.0,0.0,100,0.03,,,-99.99,,2013-09-01 10:13:00,
2013-09-01 06:23:00,61.0,61.0,29.82,NNE,24,0.0,0.0,100,0.03,,,-99.99,,2013-09-01 10:23:00,
2013-09-01 06:42:00,61.0,61.0,29.80,NNE,24,0.0,0.0,100,0.03,,,-99.99,,2013-09-01 10:42:00,
2013-09-01 06:53:00,61.0,61.0,29.81,NNE,24,0.0,0.0,100,0.03,,,-99.99,,2013-09-01 10:53:00,
2013-09-01 07:12:00,61.0,61.0,29.80,NNE,24,0.0,0.0,100,0.03,,,-99.99,,2013-09-01 11:12:00,
2013-09-01 07:22:00,61.0,61.0,29.79,NNE,24,0.0,0.0,100,0.03,,,-99.99,,2013-09-01 11:22:00,
2013-09-01 07:42:00,61.0,61.0,29.80,NNE,24,0.0,0.0,100,0.03,,,-99.99,,2013-09-01 11:42:00,
2013-09-01 07:52:00,61.0,61.0,29.80,NNE,24,0.0,0.0,100,0.03,,,-99.99,,2013-09-01 11:52:00,
2013-09-01 08:12:00,61.0,61.0,29.80,NNE,24,0.0,0.0,100,0.03,,,-99.99,,2013-09-01 12:12:00,
2013-09-01 08:22:00,61.0,61.0,29.79,NNE,24,0.0,0.0,100,0.03,,,-99.99,,2013-09-01 12:22:00,
2013-09-01 08:42:00,63.0,63.0,29.79,NNE,24,0.0,0.0,100,0.03,,,-99.99,,2013-09-01 12:42:00,
2013-09-01 08:52:00,63.0,63.0,29.79,NNE,24,0.0,0.0,100,0.03,,,-99.99,,2013-09-01 12:52:00,
2013-09-01 09:11:00,64.0,64.0,29.80,ESE,120,1.0,0.0,100,0.03,,,-99.99,,2013-09-01 13:11:00,
2013-09-01 09:21:00,65.0,65.0,29.81,ESE,120,0.0,0.0,100,0.03,,,-99.99,,2013-09-01 13:21:00,
2013-09-01 09:42:00,65.0,65.0,29.80,ESE,120,0.0,0.0,100,0.03,,,-99.99,,2013-09-01 13:42:00,
2013-09-01 09:52:00,66.0,66.0,29.80,South,176,3.0,0.0,100,0.03,,,-99.99,,2013-09-01 13:52:00,
2013-09-01 10:11:00,66.0,66.0,29.81,South,184,0.0,0.0,100,0.03,,,-99.99,,2013-09-01 14:11:00,
2013-09-01 10:22:00,67.0,67.0,29.80,SE,136,0.0,0.0,100,0.03,,,-99.99,,2013-09-01 14:22:00,
2013-09-01 10:42:00,68.0,68.0,29.79,South,190,5.0,0.0,100,0.03,,,-99.99,,2013-09-01 14:42:00,
2013-09-01 10:52:00,69.0,69.0,29.79,SE,139,4.0,0.0,100,0.03,,,-99.99,,2013-09-01 14:52:00,
2013-09-01 11:11:00,70.0,70.0,29.81,South,177,7.0,0.0,100,0.03,,,-99.99,,2013-09-01 15:11:00,
2013-09-01 11:23:00,70.0,70.0,29.80,South,174,7.0,0.0,100,0.03,,,-99.99,,2013-09-01 15:23:00,
2013-09-01 11:45:00,71.0,71.0,29.80,SSW,197,8.0,0.0,100,0.03,,,-99.99,,2013-09-01 15:45:00,
2013-09-01 11:55:00,71.0,71.0,29.80,SSW,197,8.0,0.0,100,0.03,,,-99.99,,2013-09-01 15:55:00,
2013-09-01 12:14:00,72.0,72.0,29.80,South,188,7.0,0.0,100,0.03,,,-99.99,,2013-09-01 16:14:00,
2013-09-01 12:24:00,72.0,72.0,29.80,SSE,160,3.0,0.0,100,0.03,,,-99.99,,2013-09-01 16:24:00,
2013-09-01 12:43:00,73.0,72.0,29.79,South,172,6.0,0.0,97,0.03,,,-99.99,,2013-09-01 16:43:00,
2013-09-01 12:53:00,73.0,72.0,29.80,South,183,5.0,0.0,96,0.03,,,-99.99,,2013-09-01 16:53:00,
2013-09-01 13:12:00,73.0,72.0,29.79,South,177,5.0,0.0,96,0.03,,,-99.99,,2013-09-01 17:12:00,
2013-09-01 13:23:00,73.0,72.0,29.79,South,177,6.0,0.0,96,0.03,,,-99.99,,2013-09-01 17:23:00,
2013-09-01 13:42:00,75.0,73.0,29.78,SSE,167,7.0,0.0,94,0.03,,,-99.99,,2013-09-01 17:42:00,
2013-09-01 13:52:00,75.0,73.0,29.78,South,187,7.0,0.0,93,0.03,,,-99.99,,2013-09-01 17:52:00,
2013-09-01 14:13:00,75.0,73.0,29.78,South,190,8.0,0.0,93,0.03,,,-99.99,,2013-09-01 18:13:00,
2013-09-01 14:22:00,76.0,74.0,29.78,South,187,7.0,0.0,92,0.03,,,-99.99,,2013-09-01 18:22:00,
2013-09-01 14:42:00,77.0,73.0,29.78,South,187,6.0,0.0,88,0.03,,,-99.99,,2013-09-01 18:42:00,
2013-09-01 14:52:00,77.0,72.0,29.78,SSW,201,9.0,0.0,85,0.03,,,-99.99,,2013-09-01 18:52:00,
2013-09-01 15:12:00,78.0,72.0,29.77,SSE,156,5.0,0.0,83,0.03,,,-99.99,,2013-09-01 19:12:00,
2013-09-01 15:22:00,79.0,72.0,29.77,SSW,198,5.0,0.0,79,0.03,,,-99.99,,2013-09-01 19:22:00,
2013-09-01 15:42:00,79.0,72.0,29.76,South,183,4.0,0.0,79,0.03,,,-99.99,,2013-09-01 19:42:00,
2013-09-01 15:52:00,80.0,72.0,29.76,South,187,9.0,0.0,76,0.03,,,-99.99,,2013-09-01 19:52:00,
2013-09-01 16:12:00,79.0,71.0,29.75,SSE,166,8.0,0.0,77,0.03,,,-99.99,,2013-09-01 20:12:00,
2013-09-01 16:22:00,80.0,72.0,29.75,SSW,197,1.0,0.0,77,0.03,,,-99.99,,2013-09-01 20:22:00,
2013-09-01 16:42:00,80.0,71.0,29.74,South,190,8.0,0.0,74,0.03,,,-99.99,,2013-09-01 20:42:00,
2013-09-01 16:52:00,80.0,70.0,29.75,SSW,211,7.0,0.0,72,0.03,,,-99.99,,2013-09-01 20:52:00,
2013-09-01 17:11:00,81.0,71.0,29.74,South,181,6.0,0.0,72,0.03,,,-99.99,,2013-09-01 21:11:00,
2013-09-01 17:22:00,81.0,71.0,29.74,SSE,158,5.0,0.0,72,0.03,,,-99.99,,2013-09-01 21:22:00,
2013-09-01 17:44:00,82.0,70.0,29.73,SSW,194,7.0,0.0,67,0.03,,,-99.99,,2013-09-01 21:44:00,
2013-09-01 17:55:00,81.0,70.0,29.73,SSW,203,9.0,0.0,70,0.03,,,-99.99,,2013-09-01 21:55:00,
2013-09-01 18:15:00,81.0,71.0,29.73,West,260,3.0,0.0,71,0.03,,,-99.99,,2013-09-01 22:15:00,
2013-09-01 18:24:00,81.0,71.0,29.72,SSW,208,7.0,0.0,72,0.03,,,-99.99,,2013-09-01 22:24:00,
2013-09-01 18:53:00,79.0,72.0,29.74,West,269,6.0,0.0,80,0.03,,,-99.99,,2013-09-01 22:53:00,
2013-09-01 19:12:00,78.0,72.0,29.74,West,267,6.0,0.0,82,0.03,,,-99.99,,2013-09-01 23:12:00,
2013-09-01 19:23:00,77.0,72.0,29.74,WSW,250,5.0,0.0,86,0.03,,,-99.99,,2013-09-01 23:23:00,
2013-09-01 19:42:00,76.0,73.0,29.74,SSW,210,5.0,0.0,89,0.03,,,-99.99,,2013-09-01 23:42:00,
2013-09-01 19:53:00,76.0,73.0,29.74,West,262,2.0,0.0,91,0.03,,,-99.99,,2013-09-01 23:53:00,
2013-09-01 20:11:00,75.0,73.0,29.74,SW,215,2.0,0.0,92,0.03,,,-99.99,,2013-09-02 00:11:00,
2013-09-01 20:22:00,74.0,72.0,29.74,SW,222,5.0,0.0,93,0.03,,,-99.99,,2013-09-02 00:22:00,
2013-09-01 20:42:00,74.0,72.0,29.73,SW,215,5.0,0.0,94,0.03,,,-99.99,,2013-09-02 00:42:00,
2013-09-01 20:52:00,73.0,71.0,29.76,NNW,346,8.0,0.0,95,0.03,,,-99.99,,2013-09-02 00:52:00,
2013-09-01 21:12:00,73.0,72.0,29.74,South,170,9.0,0.0,97,0.03,,,-99.99,,2013-09-02 01:12:00,
2013-09-01 21:22:00,73.0,72.0,29.77,West,264,3.0,0.0,97,0.03,,,-99.99,,2013-09-02 01:22:00,
2013-09-01 21:42:00,72.0,71.0,29.75,WSW,243,0.0,0.0,97,0.03,,,-99.99,,2013-09-02 01:42:00,
2013-09-01 21:52:00,72.0,71.0,29.76,WSW,243,0.0,0.0,98,0.03,,,-99.99,,2013-09-02 01:52:00,
2013-09-01 22:12:00,72.0,71.0,29.76,WSW,243,0.0,0.0,98,0.03,,,-99.99,,2013-09-02 02:12:00,
2013-09-01 22:22:00,71.0,71.0,29.76,WSW,243,0.0,0.0,99,0.03,,,-99.99,,2013-09-02 02:22:00,
2013-09-01 22:42:00,71.0,71.0,29.77,WNW,301,3.0,0.0,100,0.03,,,-99.99,,2013-09-02 02:42:00,
2013-09-01 22:52:00,71.0,71.0,29.77,WNW,301,1.0,0.0,100,0.03,,,-99.99,,2013-09-02 02:52:00,
2013-09-01 23:11:00,70.0,70.0,29.78,NNW,330,4.0,0.0,100,0.03,,,-99.99,,2013-09-02 03:11:00,
2013-09-01 23:22:00,70.0,70.0,29.78,NNW,346,6.0,0.0,100,0.03,,,-99.99,,2013-09-02 03:22:00,
2013-09-01 23:44:00,70.0,70.0,29.78,North,357,0.0,0.0,100,0.03,,,-99.99,,2013-09-02 03:44:00,
2013-09-01 23:56:00,70.0,70.0,29.78,North,357,0.0,0.0,100,0.03,,,-99.99,,2013-09-02 03:56:00,